Edgewater, FL

1:32 PM EDT on October 20, 2019 (GMT -0400)
Riverside | | Change Station
Active Advisory: Flood Warning

Elev 11 ft 28.99 °N, 80.90 °W | Updated 57 seconds ago

Clear
Clear
82.6 °F
Feels Like 97 °F
N
0
Wind Variable Wind from North
Gusts 1.3 mph

Today
High -- | Low -- °F
--% Chance of Precip.
Yesterday
High -- | Low -- °F
Precip. -- in
Pressure 29.94 in
Visibility 10.0 miles
Clouds Scattered Clouds 2000 ft
Heat Index 97 °F
Dew Point 82 °F
Humidity 99%
Rainfall 0.01 in
Snow Depth Not available.
7:27 AM 6:48 PM
Waning Gibbous, 59% visible
METAR KEVB 201547Z 27014G20KT 10SM SCT020 29/23 A2994
Pressure 29.94 in
Visibility 10.0 miles
Clouds Scattered Clouds 2000 ft
Heat Index 97 °F
Dew Point 82 °F
Humidity 99%
Rainfall 0.01 in
Snow Depth Not available.
7:27 AM 6:48 PM
Waning Gibbous, 59% visible
METAR KEVB 201547Z 27014G20KT 10SM SCT020 29/23 A2994

Get Your Daily Forecast Email!

Thanks for signing up!

Be on the lookout for a verification email in your inbox.

You'll start receiving severe weather alerts in your inbox..

×

10-Day Weather Forecast

Almanac

Astronomy

Oct. 20, 2019 Rise Set
Actual Time
Civil Twilight
Nautical Twilight
Astronomical Twilight
Moon
Length of Visible Light
Length of Day
Tomorrow will be .
, % of the Moon is Illuminated

Today's Extremes

State Highs State Lows

Community

WunderPhotos

Category 6

Welcome to Category 6. This is the collective home for Weather Underground's featured writeups by Dr. Jeff Masters (right), Bob Henson (left), Chris Burt, and other regular contributors.

Nearby

Air Quality

  Air Quality AQ Index Pollutant
Not available.

Snow Depth

Station Depth Elevation

Earthquake Activity

City Distance Mag. Time & Date
Minimum magnitude displayed is 2.5.

Coastal Water Temperatures

Place Temperature

Stations

Nearby Weather Stations

Station Location Temp. Windchill Dew Point Humidity Wind Precip. Elev Updated Type
                   

Watches & Warnings

Flood Warning
Issued: 9:50 AM EDT Oct. 20, 2019 – National Weather Service

The Flood Warning continues for
the St Johns River near Astor.
* Minor flooding is occurring and minor flooding is forecast.

*At 2.3 feet, minor flooding of low lying streets and yards north of
Fox Road on Lake County side of Astor, and from River Road northward
on Volusia side of river. Water begins to cover docks at south moon
Fish Camp.



             Fld observed forecast 7 am EST/8 am EDT
location stg stg day time Mon Tue Wed Thu Fri

St. Johns River
Astor 2.3 2.4 sun 09 am 2.3 2.3 2.3 2.3 2.4



Lat... Lon 2908 8150 2932 8169 2935 8157 2910 8142